createdAt,value
2022-10-22T00:00:08.583Z,0.00
2022-10-22T00:01:08.779Z,0.00
2022-10-22T00:03:08.127Z,0.02
2022-10-22T00:04:09.367Z,0.00
2022-10-22T00:05:09.527Z,0.00
2022-10-22T00:06:06.596Z,0.00
2022-10-22T00:07:09.907Z,0.00
2022-10-22T00:08:06.992Z,0.00
2022-10-22T00:09:08.275Z,0.00
2022-10-22T00:10:09.458Z,0.00
2022-10-22T00:11:06.511Z,0.00
2022-10-22T00:12:09.776Z,0.00
2022-10-22T00:13:08.917Z,0.00
2022-10-22T00:14:07.020Z,0.00
2022-10-22T00:15:09.277Z,0.00
2022-10-22T00:16:09.491Z,0.00
2022-10-22T00:17:10.545Z,0.00
2022-10-22T00:18:09.815Z,0.00
2022-10-22T00:19:07.120Z,0.00
2022-10-22T00:20:09.097Z,0.00
2022-10-22T00:21:11.429Z,0.02
2022-10-22T00:22:09.460Z,0.00
2022-10-22T00:23:06.531Z,0.00
2022-10-22T00:24:09.815Z,0.00
2022-10-22T00:25:06.898Z,0.00
2022-10-22T00:26:08.113Z,0.00
2022-10-22T00:27:08.422Z,0.00
2022-10-22T00:28:06.391Z,0.00
2022-10-22T00:29:08.664Z,0.00
2022-10-22T00:30:06.770Z,0.00
2022-10-22T00:31:09.020Z,0.00
2022-10-22T00:32:08.164Z,0.00
2022-10-22T00:33:08.347Z,0.00
2022-10-22T00:34:08.522Z,0.00
2022-10-22T00:35:06.625Z,0.00
2022-10-22T00:36:08.896Z,0.00
2022-10-22T00:37:08.031Z,0.00
2022-10-22T00:38:06.800Z,0.00
2022-10-22T00:39:10.471Z,0.00
2022-10-22T00:40:08.592Z,0.00
2022-10-22T00:41:06.694Z,0.00
2022-10-22T00:42:07.922Z,0.00
2022-10-22T00:43:09.134Z,0.00
2022-10-22T00:44:09.323Z,0.00
2022-10-22T00:45:09.488Z,0.00
2022-10-22T00:46:06.551Z,0.00
2022-10-22T00:47:09.853Z,0.00
2022-10-22T00:48:05.831Z,0.00
2022-10-22T00:49:07.011Z,0.00
2022-10-22T00:50:06.310Z,0.00
2022-10-22T00:51:07.244Z,0.00
2022-10-22T00:52:06.460Z,0.00
2022-10-22T00:53:06.760Z,0.00
2022-10-22T00:54:06.793Z,0.00
2022-10-22T00:55:05.933Z,0.00
2022-10-22T00:56:07.197Z,0.00
2022-10-22T00:57:07.320Z,0.00
2022-10-22T00:58:07.732Z,0.00
2022-10-22T01:00:06.803Z,0.00
2022-10-22T01:01:05.972Z,0.00
2022-10-22T01:02:07.188Z,0.00
2022-10-22T01:03:07.355Z,0.00
2022-10-22T01:04:06.456Z,0.00
2022-10-22T01:05:12.935Z,0.00
2022-10-22T01:06:05.829Z,0.00
2022-10-22T01:07:07.009Z,0.00
2022-10-22T01:08:06.174Z,0.00
2022-10-22T01:09:07.454Z,0.00
2022-10-22T01:10:05.455Z,0.00
2022-10-22T01:11:05.629Z,0.00
2022-10-22T01:12:05.807Z,0.00
2022-10-22T01:14:07.197Z,0.00
2022-10-22T01:15:06.347Z,0.00
2022-10-22T01:16:05.483Z,0.00
2022-10-22T01:17:06.607Z,0.00
2022-10-22T01:18:05.821Z,0.00
2022-10-22T01:19:05.988Z,0.00
2022-10-22T01:20:06.167Z,0.00
2022-10-22T01:21:06.713Z,0.00
2022-10-22T01:22:05.442Z,0.00
2022-10-22T01:23:05.614Z,0.00
2022-10-22T01:24:05.767Z,0.00
2022-10-22T01:25:05.907Z,0.00
2022-10-22T01:26:06.077Z,0.00
2022-10-22T01:27:07.359Z,0.00
2022-10-22T01:28:07.461Z,0.00
2022-10-22T01:29:07.600Z,0.00
2022-10-22T01:30:05.723Z,0.00
2022-10-22T01:31:06.899Z,0.00
2022-10-22T01:32:07.072Z,0.00
2022-10-22T01:33:06.304Z,0.00
2022-10-22T01:34:06.383Z,0.00
2022-10-22T01:35:06.551Z,0.00
2022-10-22T01:36:05.679Z,0.00
2022-10-22T01:37:06.893Z,0.00
2022-10-22T01:38:07.081Z,0.00
2022-10-22T01:39:07.230Z,0.00
2022-10-22T01:40:06.369Z,0.00
2022-10-22T01:41:07.589Z,0.00
2022-10-22T01:42:06.670Z,0.00
2022-10-22T01:43:05.790Z,0.00
2022-10-22T01:44:06.291Z,0.02
2022-10-22T01:45:07.151Z,0.00
2022-10-22T01:46:05.245Z,0.00
2022-10-22T01:47:06.463Z,0.00
2022-10-22T01:48:07.727Z,0.00
2022-10-22T01:49:05.723Z,0.00
2022-10-22T01:50:07.234Z,0.00
2022-10-22T01:51:08.045Z,0.00
2022-10-22T01:52:07.244Z,0.00
2022-10-22T01:53:07.442Z,0.00
2022-10-22T01:54:07.571Z,0.00
2022-10-22T01:55:06.723Z,0.00
2022-10-22T01:56:07.707Z,0.00
2022-10-22T01:57:07.018Z,0.00
2022-10-22T01:58:05.108Z,0.00
2022-10-22T01:59:07.312Z,0.00
2022-10-22T02:00:05.399Z,0.00
2022-10-22T02:01:05.587Z,0.00
2022-10-22T02:02:06.999Z,0.04
2022-10-22T02:03:05.915Z,0.00
2022-10-22T02:05:05.220Z,0.00
2022-10-22T02:06:05.413Z,0.00
2022-10-22T02:07:05.575Z,0.00
2022-10-22T02:08:06.339Z,0.00
2022-10-22T02:09:04.951Z,0.00
2022-10-22T02:10:06.005Z,0.00
2022-10-22T02:11:05.227Z,0.00
2022-10-22T02:13:06.303Z,0.00
2022-10-22T02:14:06.697Z,0.00
2022-10-22T02:15:04.896Z,0.00
2022-10-22T02:16:06.109Z,0.00
2022-10-22T02:17:05.235Z,0.00
2022-10-22T02:18:05.420Z,0.00
2022-10-22T02:19:06.307Z,0.00
2022-10-22T02:20:04.715Z,0.00
2022-10-22T02:21:05.954Z,0.00
2022-10-22T02:22:05.026Z,0.00
2022-10-22T02:23:06.233Z,0.00
2022-10-22T02:24:05.365Z,0.00
2022-10-22T02:25:06.298Z,0.00
2022-10-22T02:26:04.644Z,0.00
2022-10-22T02:27:05.849Z,0.00
2022-10-22T02:28:04.953Z,0.00
2022-10-22T02:29:06.155Z,0.00
2022-10-22T02:30:05.407Z,0.00
2022-10-22T02:31:06.787Z,0.00
2022-10-22T02:32:05.617Z,0.00
2022-10-22T02:33:04.871Z,0.00
2022-10-22T02:34:05.945Z,0.00
2022-10-22T02:35:05.057Z,0.00
2022-10-22T02:36:05.204Z,0.00
2022-10-22T02:38:04.509Z,0.00
2022-10-22T02:39:05.725Z,0.00
2022-10-22T02:40:05.856Z,0.00
2022-10-22T02:41:05.995Z,0.00
2022-10-22T02:42:06.160Z,0.00
2022-10-22T02:43:04.295Z,0.00
2022-10-22T02:44:05.421Z,0.00
2022-10-22T02:45:05.591Z,0.00
2022-10-22T02:46:04.702Z,0.00
2022-10-22T02:47:04.863Z,0.00
2022-10-22T02:48:06.800Z,0.00
2022-10-22T02:49:05.212Z,0.00
2022-10-22T02:50:07.946Z,0.00
2022-10-22T02:51:05.550Z,0.00
2022-10-22T02:52:05.750Z,0.00
2022-10-22T02:53:05.032Z,0.00
2022-10-22T02:54:06.753Z,0.00
2022-10-22T02:55:04.175Z,0.00
2022-10-22T02:56:04.314Z,0.00
2022-10-22T02:57:05.532Z,0.00
2022-10-22T02:58:05.691Z,0.00
2022-10-22T02:59:04.840Z,0.00
2022-10-22T03:00:04.112Z,0.00
2022-10-22T03:01:04.270Z,0.00
2022-10-22T03:02:04.344Z,0.00
2022-10-22T03:03:05.608Z,0.00
2022-10-22T03:04:04.691Z,0.00
2022-10-22T03:05:06.393Z,0.00
2022-10-22T03:06:06.096Z,0.00
2022-10-22T03:07:06.265Z,0.00
2022-10-22T03:08:04.383Z,0.00
2022-10-22T03:09:04.618Z,0.00
2022-10-22T03:10:04.741Z,0.00
2022-10-22T03:11:03.888Z,0.00
2022-10-22T03:12:04.023Z,0.00
2022-10-22T03:13:04.247Z,0.00
2022-10-22T03:14:04.369Z,0.00
2022-10-22T03:15:04.521Z,0.00
2022-10-22T03:16:06.762Z,0.00
2022-10-22T03:17:03.798Z,0.00
2022-10-22T03:18:04.229Z,0.00
2022-10-22T03:19:06.183Z,0.00
2022-10-22T03:20:05.313Z,0.00
2022-10-22T03:21:05.495Z,0.00
2022-10-22T03:22:07.645Z,0.00
2022-10-22T03:23:03.772Z,0.00
2022-10-22T03:24:07.066Z,0.00
2022-10-22T03:25:04.126Z,0.00
2022-10-22T03:26:04.320Z,0.00
2022-10-22T03:27:04.487Z,0.00
2022-10-22T03:28:04.042Z,0.00
2022-10-22T03:29:03.818Z,0.00
2022-10-22T03:30:04.025Z,0.00
2022-10-22T03:31:04.186Z,0.00
2022-10-22T03:32:04.373Z,0.00
2022-10-22T03:33:07.529Z,0.00
2022-10-22T03:34:03.673Z,0.00
2022-10-22T03:35:03.818Z,0.00
2022-10-22T03:36:03.995Z,0.00
2022-10-22T03:37:04.159Z,0.00
2022-10-22T03:38:04.521Z,0.00
2022-10-22T03:39:03.539Z,0.00
2022-10-22T03:40:03.659Z,0.00
2022-10-22T03:41:03.916Z,0.00
2022-10-22T03:42:03.979Z,0.00
2022-10-22T03:43:04.177Z,0.00
2022-10-22T03:44:06.328Z,0.00
2022-10-22T03:45:03.479Z,0.00
2022-10-22T03:46:03.668Z,0.00
2022-10-22T03:47:03.829Z,0.00
2022-10-22T03:48:04.941Z,0.00
2022-10-22T03:49:04.150Z,0.00
2022-10-22T03:50:04.354Z,0.00
2022-10-22T03:51:04.387Z,0.00
2022-10-22T03:52:03.618Z,0.00
2022-10-22T03:53:03.794Z,0.00
2022-10-22T03:54:04.457Z,0.00
2022-10-22T03:55:04.189Z,0.00
2022-10-22T03:56:03.437Z,0.00
2022-10-22T03:57:03.529Z,0.00
2022-10-22T03:58:03.755Z,0.04
2022-10-22T03:59:03.947Z,0.00
2022-10-22T04:00:04.121Z,0.00
2022-10-22T04:01:03.274Z,0.00
2022-10-22T04:02:03.524Z,0.00
2022-10-22T04:03:03.229Z,0.00
2022-10-22T04:04:03.379Z,0.00
2022-10-22T04:05:03.616Z,0.00
2022-10-22T04:06:03.704Z,0.00
2022-10-22T04:07:03.872Z,0.00
2022-10-22T04:08:04.114Z,0.00
2022-10-22T04:09:03.174Z,0.00
2022-10-22T04:10:03.295Z,0.00
2022-10-22T04:11:03.467Z,0.00
2022-10-22T04:12:03.623Z,0.00
2022-10-22T04:13:04.765Z,0.00
2022-10-22T04:14:03.961Z,0.00
2022-10-22T04:15:03.069Z,0.00
2022-10-22T04:16:03.224Z,0.00
2022-10-22T04:17:03.393Z,0.00
2022-10-22T04:18:04.435Z,0.00
2022-10-22T04:19:03.751Z,0.00
2022-10-22T04:20:03.891Z,0.00
2022-10-22T04:21:03.953Z,0.00
2022-10-22T04:22:03.176Z,0.00
2022-10-22T04:23:03.342Z,0.00
2022-10-22T04:24:03.461Z,0.00
2022-10-22T04:25:03.753Z,0.00
2022-10-22T04:26:03.783Z,0.00
2022-10-22T04:27:02.905Z,0.00
2022-10-22T04:28:03.072Z,0.00
2022-10-22T04:29:03.265Z,0.00
2022-10-22T04:30:03.428Z,0.00
2022-10-22T04:31:03.605Z,0.00
2022-10-22T04:32:04.702Z,0.00
2022-10-22T04:33:02.870Z,0.00
2022-10-22T04:34:04.093Z,0.00
2022-10-22T04:35:03.232Z,0.00
2022-10-22T04:36:03.422Z,0.00
2022-10-22T04:37:03.693Z,0.00
2022-10-22T04:38:02.883Z,0.00
2022-10-22T04:39:02.925Z,0.00
2022-10-22T04:40:03.085Z,0.00
2022-10-22T04:41:03.285Z,0.00
2022-10-22T04:42:03.430Z,0.00
2022-10-22T04:43:04.688Z,0.00
2022-10-22T04:44:02.755Z,0.00
2022-10-22T04:45:02.897Z,0.00
2022-10-22T04:46:03.082Z,0.00
2022-10-22T04:47:03.259Z,0.00
2022-10-22T04:48:04.386Z,0.00
2022-10-22T04:49:03.606Z,0.00
2022-10-22T04:50:03.755Z,0.00
2022-10-22T04:51:03.934Z,0.00
2022-10-22T04:52:03.065Z,0.00
2022-10-22T04:53:03.408Z,0.00
2022-10-22T04:54:03.464Z,0.00
2022-10-22T04:55:02.678Z,0.00
2022-10-22T04:56:02.823Z,0.00
2022-10-22T04:57:02.996Z,0.00
2022-10-22T04:58:04.164Z,0.00
2022-10-22T04:59:02.363Z,0.00
2022-10-22T05:00:02.551Z,0.00
2022-10-22T05:01:02.832Z,0.00
2022-10-22T05:02:02.931Z,0.00
2022-10-22T05:03:03.128Z,0.00
2022-10-22T05:04:02.299Z,0.00
2022-10-22T05:05:02.457Z,0.00
2022-10-22T05:06:03.861Z,0.00
2022-10-22T05:07:02.867Z,0.00
2022-10-22T05:08:04.085Z,0.00
2022-10-22T05:09:02.269Z,0.00
2022-10-22T05:10:02.399Z,0.00
2022-10-22T05:11:02.603Z,0.00
2022-10-22T05:12:04.217Z,0.00
2022-10-22T05:13:03.332Z,0.00
2022-10-22T05:14:03.310Z,0.00
2022-10-22T05:15:03.423Z,0.00
2022-10-22T05:16:03.600Z,0.00
2022-10-22T05:17:03.767Z,0.00
2022-10-22T05:18:03.940Z,0.00
2022-10-22T05:19:03.101Z,0.02
2022-10-22T05:20:02.244Z,0.02
2022-10-22T05:21:04.389Z,0.02
2022-10-22T05:22:04.584Z,0.05
2022-10-22T05:23:05.285Z,0.05
2022-10-22T05:24:02.966Z,0.05
2022-10-22T05:25:04.173Z,0.03
2022-10-22T05:26:04.351Z,0.10
2022-10-22T05:27:04.594Z,0.05
2022-10-22T05:28:05.139Z,0.03
2022-10-22T05:29:03.894Z,0.04
2022-10-22T05:30:04.024Z,0.10
2022-10-22T05:31:03.152Z,0.11
2022-10-22T05:32:04.350Z,0.22
2022-10-22T05:33:03.511Z,0.31
2022-10-22T05:34:03.671Z,0.30
2022-10-22T05:35:03.859Z,0.29
2022-10-22T05:36:02.944Z,0.27
2022-10-22T05:37:02.107Z,0.43
2022-10-22T05:38:04.272Z,0.41
2022-10-22T05:39:04.453Z,0.71
2022-10-22T05:40:19.594Z,0.60
2022-10-22T05:41:02.738Z,0.56
2022-10-22T05:42:02.972Z,0.64
2022-10-22T05:43:02.106Z,0.74
2022-10-22T05:44:02.293Z,0.90
2022-10-22T05:45:02.473Z,0.85
2022-10-22T05:46:02.671Z,1.24
2022-10-22T05:47:01.821Z,1.33
2022-10-22T05:48:02.936Z,1.63
2022-10-22T05:49:02.090Z,2.01
2022-10-22T05:50:02.283Z,2.44
2022-10-22T05:51:02.486Z,2.84
2022-10-22T05:52:01.677Z,4.14
2022-10-22T05:53:02.145Z,4.27
2022-10-22T05:54:03.087Z,5.12
2022-10-22T05:55:02.243Z,5.86
2022-10-22T05:56:02.433Z,6.84
2022-10-22T05:57:01.613Z,8.24
2022-10-22T05:58:01.830Z,9.67
2022-10-22T06:00:03.235Z,13.31
2022-10-22T06:01:02.432Z,15.57
2022-10-22T06:02:02.648Z,17.93
2022-10-22T06:03:01.820Z,20.92
2022-10-22T06:04:02.050Z,23.68
2022-10-22T06:05:02.223Z,27.03
2022-10-22T06:06:02.427Z,30.28
2022-10-22T06:07:01.585Z,34.19
2022-10-22T06:08:02.901Z,38.00
2022-10-22T06:09:03.217Z,41.10
2022-10-22T06:10:03.235Z,43.62
2022-10-22T06:11:03.456Z,45.75
2022-10-22T06:12:03.649Z,48.24
2022-10-22T06:13:02.826Z,51.42
2022-10-22T06:14:03.045Z,53.56
2022-10-22T06:15:02.232Z,53.74
2022-10-22T06:16:02.436Z,51.54
2022-10-22T06:17:01.621Z,54.43
2022-10-22T06:18:01.814Z,60.48
2022-10-22T06:19:02.125Z,67.81
2022-10-22T06:20:02.287Z,71.51
2022-10-22T06:21:04.239Z,75.70
2022-10-22T06:22:02.611Z,80.37
2022-10-22T06:23:01.771Z,84.43
2022-10-22T06:24:01.955Z,88.02
2022-10-22T06:25:02.273Z,93.10
2022-10-22T06:26:04.327Z,98.23
2022-10-22T06:27:01.519Z,103.23
2022-10-22T06:28:02.741Z,107.96
2022-10-22T06:29:01.906Z,112.32
2022-10-22T06:30:02.088Z,116.58
2022-10-22T06:31:01.238Z,120.62
2022-10-22T06:32:01.441Z,124.96
2022-10-22T06:33:02.567Z,129.42
2022-10-22T06:34:01.837Z,134.20
2022-10-22T06:35:02.021Z,139.90
2022-10-22T06:36:04.044Z,146.73
2022-10-22T06:37:02.369Z,154.03
2022-10-22T06:38:02.551Z,164.49
2022-10-22T06:39:01.797Z,171.33
2022-10-22T06:40:01.967Z,176.51
2022-10-22T06:41:03.199Z,179.48
2022-10-22T06:42:01.329Z,181.55
2022-10-22T06:43:01.539Z,183.44
2022-10-22T06:44:01.741Z,186.30
2022-10-22T06:46:01.121Z,193.64
2022-10-22T06:47:01.351Z,196.79
2022-10-22T06:48:02.517Z,200.46
2022-10-22T06:49:01.787Z,204.69
2022-10-22T06:50:00.914Z,216.24
2022-10-22T06:51:01.140Z,271.59
2022-10-22T06:52:02.289Z,334.93
2022-10-22T06:53:01.600Z,346.50
2022-10-22T06:54:01.726Z,380.93
2022-10-22T06:55:00.863Z,396.07
2022-10-22T06:56:01.083Z,387.13
2022-10-22T06:57:01.345Z,337.02
2022-10-22T06:58:02.431Z,330.29
2022-10-22T06:59:02.646Z,337.39
2022-10-22T07:00:01.855Z,348.31
2022-10-22T07:01:02.169Z,381.09
2022-10-22T07:02:02.312Z,388.75
2022-10-22T07:03:04.304Z,474.45
2022-10-22T07:04:01.605Z,487.52
2022-10-22T07:05:01.805Z,488.78
2022-10-22T07:06:00.960Z,488.51
2022-10-22T07:07:01.142Z,491.92
2022-10-22T07:08:02.483Z,501.91
2022-10-22T07:09:01.615Z,513.79
2022-10-22T07:10:01.666Z,527.25
2022-10-22T07:11:01.838Z,541.11
2022-10-22T07:12:03.024Z,557.18
2022-10-22T07:13:04.106Z,572.75
2022-10-22T07:14:02.383Z,586.61
2022-10-22T07:15:02.523Z,602.00
2022-10-22T07:16:00.646Z,614.67
2022-10-22T07:17:00.853Z,625.52
2022-10-22T07:18:03.121Z,637.24
2022-10-22T07:19:03.395Z,650.25
2022-10-22T07:20:02.447Z,650.08
2022-10-22T07:21:02.646Z,666.12
2022-10-22T07:22:02.729Z,669.31
2022-10-22T07:23:01.974Z,671.88
2022-10-22T07:24:02.159Z,674.44
2022-10-22T07:25:05.253Z,676.56
2022-10-22T07:26:01.447Z,668.30
2022-10-22T07:27:01.653Z,676.43
2022-10-22T07:28:00.799Z,670.34
2022-10-22T07:29:02.034Z,664.30
2022-10-22T07:30:01.148Z,658.27
2022-10-22T07:31:00.335Z,654.62
2022-10-22T07:32:00.485Z,651.72
2022-10-22T07:33:00.658Z,650.25
2022-10-22T07:34:00.825Z,654.73
2022-10-22T07:35:00.999Z,660.45
2022-10-22T07:36:01.154Z,662.66
2022-10-22T07:37:00.295Z,663.02
2022-10-22T07:38:00.442Z,666.01
2022-10-22T07:39:00.670Z,670.65
2022-10-22T07:40:03.762Z,669.51
2022-10-22T07:41:00.979Z,601.96
2022-10-22T07:42:00.999Z,560.84
2022-10-22T07:43:00.727Z,502.20
2022-10-22T07:44:00.885Z,580.30
2022-10-22T07:45:00.822Z,562.71
2022-10-22T07:46:00.978Z,557.51
2022-10-22T07:47:02.108Z,575.05
2022-10-22T07:48:04.819Z,573.82
2022-10-22T07:49:01.068Z,580.16
2022-10-22T07:50:07.949Z,581.51
2022-10-22T07:51:02.091Z,549.85
2022-10-22T07:52:00.917Z,673.92
2022-10-22T07:53:03.101Z,630.20
2022-10-22T07:54:01.346Z,602.90
2022-10-22T07:55:01.338Z,598.17
2022-10-22T07:56:00.479Z,603.54
2022-10-22T07:57:00.655Z,614.13
2022-10-22T07:58:02.859Z,625.74
2022-10-22T08:00:02.134Z,669.53
2022-10-22T08:01:00.318Z,689.03
2022-10-22T08:02:00.361Z,631.92
2022-10-22T08:03:00.609Z,663.30
2022-10-22T08:04:01.792Z,699.22
2022-10-22T08:05:01.851Z,699.86
2022-10-22T08:05:59.934Z,705.68
2022-10-22T08:07:01.130Z,716.46
2022-10-22T08:08:01.279Z,725.29
2022-10-22T08:09:00.470Z,646.51
2022-10-22T08:10:00.613Z,674.59
2022-10-22T08:11:00.705Z,723.87
2022-10-22T08:12:00.862Z,650.20
2022-10-22T08:13:00.425Z,713.75
2022-10-22T08:14:00.566Z,669.72
2022-10-22T08:15:01.780Z,676.81
2022-10-22T08:16:00.891Z,675.69
2022-10-22T08:16:59.944Z,693.74
2022-10-22T08:18:00.954Z,767.75
2022-10-22T08:19:01.089Z,777.85
2022-10-22T08:20:00.214Z,785.11
2022-10-22T08:21:00.356Z,726.74
2022-10-22T08:22:00.506Z,750.27
2022-10-22T08:23:00.585Z,755.24
2022-10-22T08:24:00.754Z,821.07
2022-10-22T08:25:00.875Z,798.26
2022-10-22T08:25:59.993Z,717.42
2022-10-22T08:27:00.162Z,662.16
2022-10-22T08:28:01.413Z,817.91
2022-10-22T08:29:00.479Z,730.03
2022-10-22T08:30:00.573Z,693.80
2022-10-22T08:30:59.691Z,802.60
2022-10-22T08:32:00.927Z,860.37
2022-10-22T08:33:01.053Z,781.86
2022-10-22T08:34:00.173Z,766.18
2022-10-22T08:35:00.310Z,758.66
2022-10-22T08:35:59.643Z,743.53
2022-10-22T08:37:00.760Z,739.22
2022-10-22T08:38:00.807Z,741.66
2022-10-22T08:39:40.335Z,754.33
2022-10-22T08:40:00.035Z,756.54
2022-10-22T08:41:00.216Z,767.34
2022-10-22T08:42:00.389Z,783.20
2022-10-22T08:42:59.469Z,660.99
2022-10-22T08:44:07.309Z,693.93
2022-10-22T08:45:00.814Z,736.40
2022-10-22T08:46:00.976Z,625.61
2022-10-22T08:47:00.091Z,728.95
2022-10-22T08:48:06.465Z,781.14
2022-10-22T08:49:00.497Z,758.48
2022-10-22T08:50:01.637Z,753.53
2022-10-22T08:51:01.715Z,737.56
2022-10-22T08:51:59.826Z,729.88
2022-10-22T08:53:02.091Z,719.99
2022-10-22T08:54:02.126Z,714.76
2022-10-22T08:55:01.219Z,711.75
2022-10-22T08:55:59.329Z,714.00
2022-10-22T08:56:59.459Z,713.14
2022-10-22T08:58:00.607Z,720.88
2022-10-22T08:59:00.784Z,735.68
2022-10-22T09:00:00.898Z,639.56
2022-10-22T09:01:01.070Z,436.83
2022-10-22T09:02:00.199Z,422.29
2022-10-22T09:02:59.273Z,824.38
2022-10-22T09:03:59.437Z,603.15
2022-10-22T09:04:59.584Z,848.89
2022-10-22T09:05:59.770Z,716.33
2022-10-22T09:06:59.950Z,933.06
2022-10-22T09:07:59.019Z,940.11
2022-10-22T09:08:59.248Z,934.56
2022-10-22T09:10:02.421Z,917.09
2022-10-22T09:10:59.434Z,919.16
2022-10-22T09:11:59.558Z,905.98
2022-10-22T09:13:01.010Z,913.13
2022-10-22T09:14:00.935Z,921.82
2022-10-22T09:15:01.061Z,920.42
2022-10-22T09:16:00.139Z,845.21
2022-10-22T09:16:59.250Z,781.04
2022-10-22T09:17:59.360Z,456.24
2022-10-22T09:19:00.778Z,473.73
2022-10-22T09:19:59.663Z,418.95
2022-10-22T09:20:59.781Z,387.50
2022-10-22T09:22:02.734Z,362.42
2022-10-22T09:23:00.194Z,294.42
2022-10-22T09:24:00.295Z,216.63
2022-10-22T09:24:59.433Z,195.44
2022-10-22T09:26:00.582Z,185.33
2022-10-22T09:26:59.710Z,181.23
2022-10-22T09:27:58.826Z,182.89
2022-10-22T09:28:59.977Z,188.30
2022-10-22T09:29:59.097Z,189.17
2022-10-22T09:31:00.324Z,189.33
2022-10-22T09:31:59.379Z,186.37
2022-10-22T09:32:59.537Z,179.64
2022-10-22T09:33:58.666Z,170.02
2022-10-22T09:34:59.813Z,163.37
2022-10-22T09:35:58.944Z,156.99
2022-10-22T09:36:59.124Z,160.61
2022-10-22T09:38:00.303Z,161.95
2022-10-22T09:39:00.472Z,163.27
2022-10-22T09:40:00.625Z,162.10
2022-10-22T09:41:00.745Z,158.22
2022-10-22T09:42:00.977Z,159.32
2022-10-22T09:43:00.075Z,157.96
2022-10-22T09:43:59.162Z,155.47
2022-10-22T09:45:00.415Z,166.27
2022-10-22T09:46:00.513Z,173.59
2022-10-22T09:47:00.683Z,178.82
2022-10-22T09:48:26.930Z,199.56
2022-10-22T09:48:58.888Z,206.37
2022-10-22T09:49:59.054Z,213.93
2022-10-22T09:50:59.185Z,216.82
2022-10-22T09:51:59.356Z,221.20
2022-10-22T09:52:59.491Z,225.22
2022-10-22T09:53:58.635Z,235.19
2022-10-22T09:55:00.831Z,255.71
2022-10-22T09:55:58.964Z,276.51
2022-10-22T09:56:59.083Z,293.83
2022-10-22T09:57:59.259Z,304.53
2022-10-22T09:58:59.487Z,313.97
2022-10-22T09:59:59.547Z,322.24
2022-10-22T10:00:59.700Z,321.33
2022-10-22T10:02:13.365Z,324.13
2022-10-22T10:03:00.012Z,332.26
2022-10-22T10:04:00.150Z,367.81
2022-10-22T10:04:59.268Z,386.91
2022-10-22T10:06:04.693Z,330.92
2022-10-22T10:06:59.502Z,313.15
2022-10-22T10:07:59.693Z,300.91
2022-10-22T10:08:58.864Z,301.45
2022-10-22T10:09:58.987Z,307.50
2022-10-22T10:11:48.857Z,364.08
2022-10-22T10:11:58.200Z,376.33
2022-10-22T10:12:58.350Z,400.86
2022-10-22T10:13:59.552Z,459.33
2022-10-22T10:14:58.619Z,424.34
2022-10-22T10:16:02.935Z,401.72
2022-10-22T10:16:58.917Z,398.49
2022-10-22T10:17:59.057Z,413.47
2022-10-22T10:18:59.219Z,426.93
2022-10-22T10:20:02.910Z,413.36
2022-10-22T10:20:59.570Z,430.16
2022-10-22T10:22:00.247Z,409.33
2022-10-22T10:22:59.779Z,408.67
2022-10-22T10:23:58.895Z,405.33
2022-10-22T10:24:58.007Z,393.84
2022-10-22T10:25:59.198Z,382.30
2022-10-22T10:27:00.465Z,398.80
2022-10-22T10:28:05.748Z,454.83
2022-10-22T10:28:58.604Z,609.12
2022-10-22T10:29:58.751Z,468.95
2022-10-22T10:31:00.931Z,455.72
2022-10-22T10:32:00.090Z,506.59
2022-10-22T10:33:00.249Z,574.14
2022-10-22T10:33:58.303Z,476.87
2022-10-22T10:34:59.484Z,594.59
2022-10-22T10:36:00.659Z,419.84
2022-10-22T10:36:58.767Z,397.51
2022-10-22T10:37:59.924Z,484.44
2022-10-22T10:39:00.192Z,393.16
2022-10-22T10:39:58.182Z,376.97
2022-10-22T10:40:58.353Z,369.99
2022-10-22T10:41:58.496Z,385.33
2022-10-22T10:42:58.639Z,382.86
2022-10-22T10:43:57.774Z,391.44
2022-10-22T10:44:57.895Z,359.25
2022-10-22T10:45:58.037Z,327.77
2022-10-22T10:46:59.217Z,327.57
2022-10-22T10:48:00.411Z,341.51
2022-10-22T10:48:59.526Z,333.19
2022-10-22T10:49:59.685Z,333.87
2022-10-22T10:51:00.787Z,357.59
2022-10-22T10:51:59.937Z,358.03
2022-10-22T10:52:57.929Z,339.02
2022-10-22T10:53:58.068Z,358.46
2022-10-22T10:54:58.223Z,364.36
2022-10-22T10:55:58.372Z,358.46
2022-10-22T10:56:59.501Z,336.61
2022-10-22T10:57:58.852Z,327.92
2022-10-22T10:58:57.715Z,308.24
2022-10-22T10:59:57.859Z,289.04
2022-10-22T11:00:57.977Z,278.01
2022-10-22T11:01:58.171Z,272.76
2022-10-22T11:02:58.291Z,272.15
2022-10-22T11:03:58.435Z,283.34
2022-10-22T11:04:57.540Z,286.86
2022-10-22T11:05:57.720Z,282.31
2022-10-22T11:07:10.827Z,269.80
2022-10-22T11:07:59.374Z,249.12
2022-10-22T11:08:59.296Z,234.24
2022-10-22T11:09:59.335Z,244.80
2022-10-22T11:10:57.421Z,260.68
2022-10-22T11:11:58.606Z,263.89
2022-10-22T11:12:58.769Z,262.96
2022-10-22T11:13:57.827Z,263.86
2022-10-22T11:14:59.031Z,250.71
2022-10-22T11:15:58.137Z,244.48
2022-10-22T11:16:58.269Z,258.47
2022-10-22T11:17:59.547Z,246.21
2022-10-22T11:18:58.509Z,270.66
2022-10-22T11:19:59.901Z,305.91
2022-10-22T11:20:58.836Z,322.01
2022-10-22T11:21:59.935Z,324.59
2022-10-22T11:23:18.029Z,331.28
2022-10-22T11:23:58.419Z,328.91
2022-10-22T11:24:59.415Z,320.59
2022-10-22T11:25:57.259Z,365.65
2022-10-22T11:27:31.627Z,482.16
2022-10-22T11:28:04.518Z,818.75
2022-10-22T11:28:58.730Z,353.50
2022-10-22T11:29:58.928Z,488.14
2022-10-22T11:30:59.162Z,318.84
2022-10-22T11:31:57.171Z,364.22
2022-10-22T11:32:59.402Z,392.05
2022-10-22T11:34:04.786Z,262.19
2022-10-22T11:34:58.653Z,251.52
2022-10-22T11:35:57.742Z,249.08
2022-10-22T11:36:57.875Z,246.76
2022-10-22T11:37:58.108Z,253.66
2022-10-22T11:38:57.113Z,261.85
2022-10-22T11:39:57.219Z,265.41
2022-10-22T11:40:58.507Z,269.90
2022-10-22T11:41:59.589Z,279.76
2022-10-22T11:42:57.690Z,271.53
2022-10-22T11:43:57.837Z,266.17
2022-10-22T11:44:57.974Z,273.10
2022-10-22T11:45:57.071Z,288.66
2022-10-22T11:46:57.301Z,321.35
2022-10-22T11:47:58.384Z,351.91
2022-10-22T11:48:58.598Z,382.29
2022-10-22T11:50:04.037Z,397.75
2022-10-22T11:50:58.963Z,401.69
2022-10-22T11:52:04.249Z,464.91
2022-10-22T11:52:58.172Z,438.19
2022-10-22T11:53:58.365Z,608.65
2022-10-22T11:54:57.489Z,460.71
2022-10-22T11:55:58.697Z,466.52
2022-10-22T11:57:03.064Z,464.34
2022-10-22T11:57:58.933Z,441.17
2022-10-22T11:58:56.973Z,411.02
2022-10-22T12:00:11.706Z,387.62
2022-10-22T12:00:58.453Z,374.88
2022-10-22T12:01:57.400Z,358.40
2022-10-22T12:02:59.534Z,788.00
2022-10-22T12:03:57.741Z,296.72
2022-10-22T12:04:57.811Z,255.31
2022-10-22T12:05:56.983Z,231.81
2022-10-22T12:07:30.246Z,202.92
2022-10-22T12:07:57.249Z,196.63
2022-10-22T12:08:57.446Z,188.44
2022-10-22T12:09:59.886Z,194.52
2022-10-22T12:10:57.726Z,204.04
2022-10-22T12:11:56.740Z,214.08
2022-10-22T12:12:58.985Z,215.79
2022-10-22T12:13:57.051Z,218.12
2022-10-22T12:14:59.973Z,227.57
2022-10-22T12:15:57.320Z,234.95
2022-10-22T12:16:57.971Z,241.89
2022-10-22T12:17:58.605Z,279.61
2022-10-22T12:18:58.777Z,329.38
2022-10-22T12:19:58.574Z,382.51
2022-10-22T12:20:58.193Z,444.97
2022-10-22T12:22:03.394Z,514.81
2022-10-22T12:22:59.297Z,586.99
2022-10-22T12:23:56.458Z,639.44
2022-10-22T12:24:57.599Z,705.24
2022-10-22T12:25:56.727Z,783.35
2022-10-22T12:26:56.892Z,938.77
2022-10-22T12:27:58.096Z,989.83
2022-10-22T12:28:58.205Z,1014.36
2022-10-22T12:29:57.314Z,1038.66
2022-10-22T12:30:56.398Z,1069.46
2022-10-22T12:31:56.517Z,1102.83
2022-10-22T12:32:57.731Z,1149.75
2022-10-22T12:33:57.840Z,1104.47
2022-10-22T12:34:59.978Z,1167.89
2022-10-22T12:35:57.075Z,1110.50
2022-10-22T12:36:57.189Z,1132.36
2022-10-22T12:38:03.671Z,1183.67
2022-10-22T12:38:57.452Z,1204.60
2022-10-22T12:39:58.647Z,1216.97
2022-10-22T12:40:56.687Z,1219.76
2022-10-22T12:41:56.834Z,1220.79
2022-10-22T12:42:57.027Z,1192.01
2022-10-22T12:43:57.122Z,1189.59
2022-10-22T12:44:57.184Z,1182.26
2022-10-22T12:45:56.321Z,1183.56
2022-10-22T12:46:57.195Z,1184.92
2022-10-22T12:48:11.015Z,1177.87
2022-10-22T12:48:56.561Z,1162.73
2022-10-22T12:49:56.709Z,1166.97
2022-10-22T12:51:03.089Z,1172.69
2022-10-22T12:51:56.889Z,1169.04
2022-10-22T12:53:11.533Z,1147.04
2022-10-22T12:53:56.093Z,1130.63
2022-10-22T12:54:57.226Z,1136.22
2022-10-22T12:55:56.269Z,1130.60
2022-10-22T12:57:01.647Z,1170.10
2022-10-22T12:57:56.542Z,1185.53
2022-10-22T12:58:56.676Z,1170.85